Terminal Aerodrome Forecast
Issued by NWS

Home | Current Version | Previous Version | Graphics & Text | Print | Product List | Glossary On
Versions: 1 2 3 4 5 6 7 8 9 10 11 12 13 14 15 16 17 18 19 20
000
FTUS43 KTOP 171720
TAFFOE
TAF
KFOE 171720Z 1718/1818 30007KT P6SM BKN012
     FM172000 29006KT P6SM SCT040
     FM180600 VRB03KT 5SM BR FEW120
     FM181400 VRB03KT P6SM SCT250=

USA.gov is the U.S. government's official web portal to all federal, state and local government web resources and services.